Terminal Aerodrome Forecast
Issued by NWS Twin Cities, MN

Home | Current Version | Previous Version | Graphics & Text | Print | Product List | Glossary On
Versions: 1 2 3 4 5 6 7 8 9 10 11 12 13 14 15 16 17 18 19 20 21 22 23 24 25 26 27 28 29 30 31 32 33 34
000
FTUS43 KMPX 281800 AAA
TAFMSP
TAF AMD
KMSP 281847Z 2819/2924 14010KT P6SM -SHRA SCT025 BKN035 OVC060
     FM282200 14009KT 5SM -SHRA SCT015 BKN025 OVC035
     FM290200 12009KT 5SM -SHRA BR BKN007 OVC010
     FM290600 11008KT 5SM -DZ BR SCT004 OVC007
     FM291300 12008KT 6SM -SHRA BR BKN008 OVC010
     FM291800 22007KT P6SM VCSH BKN020 OVC060=

USA.gov is the U.S. government's official web portal to all federal, state and local government web resources and services.